Time;durP1;ratioP1;P1;durP2;ratioP2;P2;SDS_P1;SDS_P2;PMS_P1;PMS_P2;Temp;Humidity;BMP_temperature;BMP_pressure;BME280_temperature;BME280_humidity;BME280_pressure;Samples;Min_cycle;Max_cycle;Signal;HPM_P1;HPM_P2
2020/12/20 00:00:42;;;;;;;14.48;2.40;;;7.40;99.90;;;;;;5120623;28;19947;-67
2020/12/20 00:03:08;;;;;;;14.20;2.85;;;7.50;99.90;;;;;;5120396;28;20046;-67
2020/12/20 00:05:34;;;;;;;10.57;2.72;;;7.30;99.90;;;;;;5120626;28;20489;-67
2020/12/20 00:07:59;;;;;;;;;;;7.30;99.90;;;;;;5120670;28;20033;-67
2020/12/20 00:10:25;;;;;;;8.48;2.72;;;7.20;99.90;;;;;;5119436;28;19915;-67
2020/12/20 00:12:51;;;;;;;17.15;3.17;;;7.10;99.90;;;;;;5120288;28;20596;-67
2020/12/20 00:15:17;;;;;;;;;;;7.30;99.90;;;;;;5120784;28;20012;-67
2020/12/20 00:17:50;;;;;;;12.82;3.15;;;7.10;99.90;;;;;;5120218;28;20298;-67
2020/12/20 00:20:16;;;;;;;10.32;2.42;;;7.00;99.90;;;;;;5119998;28;20044;-67
2020/12/20 00:22:42;;;;;;;10.27;2.63;;;6.80;99.90;;;;;;5133396;27;20075;-67
2020/12/20 00:25:08;;;;;;;;;;;6.60;99.90;;;;;;5120545;28;20503;-67
2020/12/20 00:27:34;;;;;;;12.88;2.75;;;7.00;99.90;;;;;;5119839;28;20332;-67
2020/12/20 00:29:59;;;;;;;;;;;6.80;99.90;;;;;;5120495;28;20024;-67
2020/12/20 00:32:25;;;;;;;4.35;2.15;;;6.40;99.90;;;;;;5119842;28;19904;-67
2020/12/20 00:34:51;;;;;;;;;;;6.60;99.90;;;;;;5120430;28;20383;-67
2020/12/20 00:37:17;;;;;;;5.50;2.85;;;6.90;99.90;;;;;;5119852;28;19999;-67
2020/12/20 00:39:42;;;;;;;;;;;7.00;99.90;;;;;;5120131;28;20022;-67
2020/12/20 00:42:08;;;;;;;9.23;2.97;;;6.10;99.90;;;;;;5119778;28;19907;-67
2020/12/20 00:44:34;;;;;;;;;;;6.70;99.90;;;;;;5119931;28;20031;-67
2020/12/20 00:47:02;;;;;;;7.53;3.13;;;7.20;99.90;;;;;;5119658;28;19904;-67
2020/12/20 00:49:29;;;;;;;9.82;2.25;;;7.10;99.90;;;;;;5119944;28;20036;-67
2020/12/20 00:52:00;;;;;;;7.28;2.00;;;6.60;99.90;;;;;;5119334;28;20064;-67
2020/12/20 00:54:26;;;;;;;4.53;1.83;;;6.50;99.90;;;;;;5119426;28;20108;-67
2020/12/20 00:56:52;;;;;;;13.00;2.45;;;6.60;99.90;;;;;;5119400;28;20023;-67
2020/12/20 00:59:18;;;;;;;;;;;6.70;99.90;;;;;;5119842;28;20016;-67
2020/12/20 01:01:44;;;;;;;17.40;2.83;;;7.00;99.90;;;;;;5119273;28;19959;-67
2020/12/20 01:04:10;;;;;;;;;;;7.00;99.90;;;;;;5119787;27;20087;-67
2020/12/20 01:06:36;;;;;;;13.32;2.63;;;6.90;99.90;;;;;;5119311;27;19958;-67
2020/12/20 01:09:04;;;;;;;11.20;2.60;;;7.20;99.90;;;;;;5119092;28;20020;-67
2020/12/20 01:11:30;;;;;;;6.30;1.98;;;7.20;99.90;;;;;;5118804;28;20031;-67
2020/12/20 01:13:56;;;;;;;;;;;7.30;99.90;;;;;;5119452;28;20022;-67
2020/12/20 01:16:25;;;;;;;12.80;3.25;;;7.20;99.90;;;;;;5118896;28;20418;-67
2020/12/20 01:18:52;;;;;;;11.65;2.90;;;7.70;99.90;;;;;;5118899;28;20457;-67
2020/12/20 01:21:19;;;;;;;14.85;2.63;;;7.00;99.90;;;;;;5124028;27;20019;-67
2020/12/20 01:23:45;;;;;;;13.80;2.55;;;7.10;99.90;;;;;;5126571;27;20047;-67
2020/12/20 01:26:12;;;;;;;14.32;2.80;;;7.00;99.90;;;;;;5117218;28;20026;-67
2020/12/20 01:28:38;;;;;;;18.48;2.85;;;7.20;99.90;;;;;;5118785;28;20027;-67
2020/12/20 01:31:05;;;;;;;14.20;2.83;;;7.20;99.90;;;;;;5118771;28;20107;-67
2020/12/20 01:33:32;;;;;;;8.77;2.45;;;7.20;99.90;;;;;;5118702;28;20020;-67
2020/12/20 01:35:57;;;;;;;9.85;2.67;;;6.90;99.90;;;;;;5118801;28;20015;-67
2020/12/20 01:38:23;;;;;;;;;;;6.70;99.90;;;;;;5117843;28;20495;-67
2020/12/20 01:40:54;;;;;;;6.68;2.17;;;6.80;99.90;;;;;;5118461;27;19907;-67
2020/12/20 01:43:20;;;;;;;10.52;2.58;;;7.00;99.90;;;;;;5118396;28;20031;-67
2020/12/20 01:45:47;;;;;;;11.07;2.70;;;6.80;99.90;;;;;;5118722;28;20053;-67
2020/12/20 01:48:13;;;;;;;8.50;2.17;;;6.80;99.90;;;;;;5118594;28;20020;-67
2020/12/20 01:50:40;;;;;;;17.63;3.30;;;7.00;99.90;;;;;;5118441;28;20030;-67
2020/12/20 01:53:06;;;;;;;9.30;2.55;;;7.20;99.90;;;;;;5118392;28;20421;-67
2020/12/20 01:55:32;;;;;;;14.20;2.50;;;6.90;99.90;;;;;;5118313;28;20027;-67
2020/12/20 01:57:58;;;;;;;;;;;6.80;99.90;;;;;;5118673;28;20039;-67
2020/12/20 02:00:24;;;;;;;12.00;3.22;;;6.80;99.90;;;;;;5118586;28;19903;-67
2020/12/20 02:02:50;;;;;;;10.57;2.85;;;7.40;99.90;;;;;;5118278;28;20051;-67
2020/12/20 02:05:16;;;;;;;;;;;7.20;99.90;;;;;;5119207;28;20046;-67
2020/12/20 02:07:42;;;;;;;9.50;2.58;;;6.90;99.90;;;;;;5118211;28;19910;-67
2020/12/20 02:10:08;;;;;;;16.92;2.88;;;7.00;99.90;;;;;;5118172;28;20042;-67
2020/12/20 02:12:34;;;;;;;;;;;6.80;99.90;;;;;;5118494;28;20072;-67
2020/12/20 02:15:00;;;;;;;6.97;1.67;;;7.10;99.90;;;;;;5117996;28;19954;-67
2020/12/20 02:17:26;;;;;;;;;;;6.70;99.90;;;;;;5118424;28;20024;-67
2020/12/20 02:19:52;;;;;;;9.52;2.22;;;6.70;99.90;;;;;;5118001;28;19998;-67
2020/12/20 02:22:17;;;;;;;;;;;6.60;99.90;;;;;;5131594;27;20023;-67
2020/12/20 02:24:43;;;;;;;6.03;2.85;;;6.40;99.90;;;;;;5117989;28;19958;-67
2020/12/20 02:27:09;;;;;;;7.45;2.53;;;6.40;99.90;;;;;;5117794;28;20476;-67
2020/12/20 02:29:35;;;;;;;;;;;6.00;99.90;;;;;;5118368;28;20085;-67
2020/12/20 02:32:01;;;;;;;15.30;2.80;;;7.10;99.90;;;;;;5117894;28;19904;-67
2020/12/20 02:34:27;;;;;;;7.05;2.13;;;6.40;99.90;;;;;;5117798;28;20028;-67
2020/12/20 02:36:53;;;;;;;;;;;6.00;99.90;;;;;;5118242;28;20579;-67
2020/12/20 02:39:19;;;;;;;5.75;1.83;;;;;;;;;;5117844;28;19908;-67
2020/12/20 02:41:45;;;;;;;9.02;3.45;;;6.10;99.90;;;;;;5117623;28;20031;-67
2020/12/20 02:44:11;;;;;;;;;;;6.00;99.90;;;;;;5118154;28;20016;-67
2020/12/20 02:46:37;;;;;;;6.00;1.60;;;6.00;99.90;;;;;;5117705;28;19903;-67
2020/12/20 02:49:02;;;;;;;;;;;5.90;99.90;;;;;;5118372;28;20028;-67
2020/12/20 02:51:28;;;;;;;7.05;1.30;;;5.80;99.90;;;;;;5117497;28;19908;-67
2020/12/20 02:53:54;;;;;;;;;;;5.70;99.90;;;;;;5118419;28;20134;-67
2020/12/20 02:56:22;;;;;;;12.18;2.35;;;5.80;99.90;;;;;;5117390;28;19935;-67
2020/12/20 02:58:51;;;;;;;8.07;1.75;;;5.70;99.90;;;;;;5117679;28;20069;-67
2020/12/20 03:01:17;;;;;;;11.35;2.15;;;5.70;99.90;;;;;;5117697;28;20027;-67
2020/12/20 03:03:42;;;;;;;;;;;5.70;99.90;;;;;;5118065;28;20073;-67
2020/12/20 03:06:08;;;;;;;7.57;2.03;;;5.80;99.90;;;;;;5117761;28;19994;-67
2020/12/20 03:08:34;;;;;;;;;;;5.80;99.90;;;;;;5118058;28;20023;-67
2020/12/20 03:11:00;;;;;;;10.63;2.70;;;5.80;99.90;;;;;;5117291;28;19907;-67
2020/12/20 03:13:26;;;;;;;6.47;2.08;;;5.70;99.90;;;;;;5117433;28;20808;-67
2020/12/20 03:15:52;;;;;;;;;;;5.60;99.90;;;;;;5117961;28;20015;-67
2020/12/20 03:18:17;;;;;;;7.82;1.67;;;5.70;99.90;;;;;;5117409;28;19904;-67
2020/12/20 03:20:43;;;;;;;;;;;5.40;99.90;;;;;;5118095;28;20032;-67
2020/12/20 03:23:09;;;;;;;3.28;1.75;;;5.50;99.90;;;;;;5130064;27;19911;-67
2020/12/20 03:25:34;;;;;;;;;;;5.10;99.90;;;;;;5117785;28;20016;-67
2020/12/20 03:28:00;;;;;;;2.20;1.33;;;5.20;99.90;;;;;;5117368;28;19904;-67
2020/12/20 03:30:26;;;;;;;;;;;5.20;99.90;;;;;;5117627;28;20110;-67
2020/12/20 03:32:52;;;;;;;4.35;1.35;;;5.20;99.90;;;;;;5117271;28;19904;-67
2020/12/20 03:35:18;;;;;;;;;;;5.10;99.90;;;;;;5117818;28;20050;-67
2020/12/20 03:37:49;;;;;;;5.00;1.10;;;5.30;99.90;;;;;;5116023;28;19912;-67
2020/12/20 03:40:16;;;;;;;8.85;1.50;;;5.30;99.90;;;;;;5117058;28;20549;-67
2020/12/20 03:42:42;;;;;;;4.57;1.30;;;5.20;99.90;;;;;;5117156;28;20392;-66
2020/12/20 03:45:07;;;;;;;;;;;5.30;99.90;;;;;;5117664;28;20035;-67
2020/12/20 03:47:33;;;;;;;8.02;1.92;;;5.40;99.90;;;;;;5121176;28;19911;-67
2020/12/20 03:49:59;;;;;;;;;;;5.40;99.90;;;;;;5121163;28;20030;-67
2020/12/20 03:52:25;;;;;;;20.35;4.25;;;5.50;99.90;;;;;;5120976;28;19905;-66
2020/12/20 03:54:50;;;;;;;;;;;5.60;99.90;;;;;;5120785;28;20027;-66
2020/12/20 03:57:16;;;;;;;9.98;2.55;;;6.30;99.90;;;;;;5120731;28;19904;-67
2020/12/20 03:59:42;;;;;;;;;;;7.00;99.90;;;;;;5121029;28;20031;-67
2020/12/20 04:02:07;;;;;;;22.00;3.60;;;7.10;99.90;;;;;;5120703;28;19904;-67
2020/12/20 04:04:33;;;;;;;;;;;7.00;99.90;;;;;;5120990;27;20030;-66
2020/12/20 04:06:59;;;;;;;17.88;2.00;;;7.30;99.90;;;;;;5120618;28;20379;-67
2020/12/20 04:09:25;;;;;;;;;;;7.20;99.90;;;;;;5120540;28;20031;-67
2020/12/20 04:11:50;;;;;;;10.82;1.83;;;7.20;99.90;;;;;;5120415;28;19994;-67
2020/12/20 04:14:16;;;;;;;;;;;7.20;99.90;;;;;;5120676;28;20028;-67
2020/12/20 04:16:42;;;;;;;6.25;1.40;;;7.40;99.90;;;;;;5120345;28;19911;-67
2020/12/20 04:19:08;;;;;;;;;;;7.50;99.90;;;;;;5120581;28;20046;-67
2020/12/20 04:21:33;;;;;;;8.63;1.75;;;7.40;99.90;;;;;;5127872;27;19950;-67
2020/12/20 04:23:59;;;;;;;;;;;7.30;99.90;;;;;;5125942;27;20028;-67
2020/12/20 04:26:25;;;;;;;11.98;2.13;;;7.60;99.90;;;;;;5120192;28;19954;-67
2020/12/20 04:28:51;;;;;;;10.40;2.33;;;7.30;99.90;;;;;;5118533;28;20020;-67
2020/12/20 04:31:17;;;;;;;;;;;7.20;99.90;;;;;;5120659;28;20027;-67
2020/12/20 04:33:43;;;;;;;6.32;1.95;;;7.30;99.90;;;;;;5119969;28;19911;-67
2020/12/20 04:36:08;;;;;;;;;;;7.40;99.90;;;;;;5120580;28;20053;-67
2020/12/20 04:38:35;;;;;;;8.63;1.58;;;7.40;99.90;;;;;;5119839;28;19925;-67
2020/12/20 04:41:01;;;;;;;4.20;1.27;;;7.40;99.90;;;;;;5119855;28;20437;-67
2020/12/20 04:43:27;;;;;;;6.03;1.20;;;7.50;99.90;;;;;;5119528;28;20077;-67
2020/12/20 04:45:54;;;;;;;3.05;1.35;;;7.30;99.90;;;;;;5119955;28;20461;-67
2020/12/20 04:48:20;;;;;;;6.60;1.50;;;7.40;99.90;;;;;;5119562;28;20457;-67
2020/12/20 04:50:47;;;;;;;5.50;1.38;;;7.20;99.90;;;;;;5119841;28;20063;-67
2020/12/20 04:53:14;;;;;;;7.95;2.10;;;7.30;99.90;;;;;;5119376;28;20045;-67
2020/12/20 04:55:40;;;;;;;12.18;2.08;;;7.40;99.90;;;;;;5119504;28;20066;-67
2020/12/20 04:58:05;;;;;;;;;;;7.30;99.90;;;;;;5119592;28;20475;-67
2020/12/20 05:00:31;;;;;;;4.22;1.60;;;7.30;99.90;;;;;;5119649;28;19904;-67
2020/12/20 05:02:57;;;;;;;;;;;7.30;99.90;;;;;;5119787;28;20031;-67
2020/12/20 05:05:23;;;;;;;2.80;1.45;;;7.10;99.90;;;;;;5119605;27;19910;-67
2020/12/20 05:07:50;;;;;;;5.22;1.35;;;7.30;99.90;;;;;;5119176;28;20038;-67
2020/12/20 05:10:16;;;;;;;4.28;1.27;;;7.30;99.90;;;;;;5119160;28;20028;-67
2020/12/20 05:12:42;;;;;;;;;;;7.10;99.90;;;;;;5119474;28;20019;-67
2020/12/20 05:15:18;;;;;;;3.83;1.42;;;7.10;99.90;;;;;;5119282;27;19939;-67
2020/12/20 05:17:44;;;;;;;;;;;6.90;99.90;;;;;;5119397;28;20027;-67
2020/12/20 05:20:14;;;;;;;2.15;1.00;;;6.80;99.90;;;;;;5118844;28;20306;-67
2020/12/20 05:22:40;;;;;;;4.97;1.38;;;6.70;99.90;;;;;;5131694;27;20019;-67
2020/12/20 05:25:16;;;;;;;2.28;0.95;;;6.60;99.90;;;;;;5118858;28;20027;-67
2020/12/20 05:27:42;;;;;;;1.42;0.82;;;6.60;99.90;;;;;;5118780;28;20031;-67
2020/12/20 05:30:14;;;;;;;;;;;6.70;99.90;;;;;;5119318;28;20617;-67
2020/12/20 05:32:42;;;;;;;4.22;1.02;;;6.90;99.90;;;;;;5118633;28;19908;-67
2020/12/20 05:35:10;;;;;;;5.82;1.30;;;6.60;99.90;;;;;;5118846;28;20026;-67
2020/12/20 05:37:37;;;;;;;1.98;1.20;;;6.60;99.90;;;;;;5118679;28;20032;-67
2020/12/20 05:40:09;;;;;;;5.10;1.02;;;6.50;99.90;;;;;;5117155;28;20027;-67
2020/12/20 05:42:35;;;;;;;7.25;1.10;;;6.50;99.90;;;;;;5118765;28;20019;-67
2020/12/20 05:45:18;;;;;;;1.95;1.10;;;6.40;99.90;;;;;;5118673;28;20020;-67
2020/12/20 05:47:44;;;;;;;3.08;1.27;;;6.30;99.90;;;;;;5118820;28;20028;-67
2020/12/20 05:50:12;;;;;;;2.90;1.55;;;6.40;99.90;;;;;;5116969;28;20070;-67
2020/12/20 05:52:39;;;;;;;5.47;1.55;;;6.20;99.90;;;;;;5118451;28;20035;-67
2020/12/20 05:55:12;;;;;;;3.10;1.23;;;6.00;99.90;;;;;;5118180;28;20531;-67
2020/12/20 05:57:38;;;;;;;1.90;1.33;;;6.10;99.90;;;;;;5118312;28;20042;-67
2020/12/20 06:00:06;;;;;;;4.47;1.05;;;6.00;99.90;;;;;;5118276;28;20076;-67
2020/12/20 06:02:31;;;;;;;5.22;0.95;;;5.80;99.90;;;;;;5118377;28;20475;-67
2020/12/20 06:05:00;;;;;;;;;;;5.90;99.90;;;;;;5118668;28;20027;-67
2020/12/20 06:07:26;;;;;;;2.05;1.42;;;5.80;99.90;;;;;;5118271;28;19992;-67
2020/12/20 06:09:57;;;;;;;2.42;0.90;;;5.70;99.90;;;;;;5117212;28;20031;-67
2020/12/20 06:12:27;;;;;;;2.25;0.80;;;5.60;99.90;;;;;;5118240;28;20016;-67
2020/12/20 06:14:55;;;;;;;3.70;0.75;;;5.60;99.90;;;;;;5117904;28;20095;-67
2020/12/20 06:17:28;;;;;;;2.28;0.95;;;5.40;99.90;;;;;;5118077;28;20026;-67
2020/12/20 06:20:01;;;;;;;2.10;0.90;;;5.40;99.90;;;;;;5117929;28;20039;-67
2020/12/20 06:22:31;;;;;;;0.77;0.57;;;5.40;99.90;;;;;;5131063;27;20032;-67
2020/12/20 06:25:08;;;;;;;1.08;0.77;;;5.20;99.90;;;;;;5117996;28;20208;-67
2020/12/20 06:27:35;;;;;;;2.60;1.27;;;5.30;99.90;;;;;;5117841;28;20016;-67
2020/12/20 06:30:07;;;;;;;1.30;0.90;;;5.10;99.90;;;;;;5117945;28;20023;-67
2020/12/20 06:32:43;;;;;;;1.42;0.80;;;5.10;99.90;;;;;;5117813;28;20023;-67
2020/12/20 06:35:26;;;;;;;2.33;0.90;;;5.00;99.90;;;;;;5116587;28;20491;-67
2020/12/20 06:37:53;;;;;;;2.47;0.82;;;5.00;99.90;;;;;;5117962;28;20375;-67
2020/12/20 06:40:30;;;;;;;2.95;1.05;;;4.80;99.90;;;;;;5117505;28;20052;-67
2020/12/20 06:42:58;;;;;;;2.38;0.82;;;4.90;99.90;;;;;;5117682;28;20073;-67
2020/12/20 06:45:27;;;;;;;3.53;1.48;;;4.80;99.90;;;;;;5117545;28;20027;-67
2020/12/20 06:48:00;;;;;;;2.35;1.02;;;4.70;99.90;;;;;;5117776;28;20387;-67
2020/12/20 06:50:49;;;;;;;1.83;0.90;;;4.70;99.90;;;;;;5117503;28;20115;-67
2020/12/20 06:53:18;;;;;;;2.42;1.02;;;4.80;99.90;;;;;;5117575;28;20020;-67
2020/12/20 06:55:45;;;;;;;2.08;1.83;;;4.70;99.90;;;;;;5117464;28;20102;-66
2020/12/20 06:58:17;;;;;;;2.58;1.10;;;4.60;99.90;;;;;;5117502;28;20016;-67
2020/12/20 07:00:54;;;;;;;0.80;0.80;;;4.70;99.90;;;;;;5117691;28;20032;-67
2020/12/20 07:03:23;;;;;;;2.70;0.93;;;4.60;99.90;;;;;;5117666;28;20020;-67
2020/12/20 07:05:50;;;;;;;1.17;0.90;;;4.50;99.90;;;;;;5117767;28;20027;-67
2020/12/20 07:08:30;;;;;;;2.33;1.27;;;4.60;99.90;;;;;;5117483;28;20023;-67
2020/12/20 07:10:58;;;;;;;2.78;1.70;;;4.50;99.90;;;;;;5116009;28;20495;-67
2020/12/20 07:13:37;;;;;;;1.50;1.17;;;4.50;99.90;;;;;;5116068;28;20023;-67
2020/12/20 07:16:12;;;;;;;2.05;1.20;;;4.60;99.90;;;;;;5117475;28;20016;-67
2020/12/20 07:18:41;;;;;;;3.33;1.30;;;4.30;99.90;;;;;;5117444;28;20047;-67
2020/12/20 07:21:10;;;;;;;2.08;1.23;;;4.30;99.90;;;;;;5121028;27;20024;-67
2020/12/20 07:23:39;;;;;;;2.05;1.17;;;4.20;99.90;;;;;;5121330;28;20118;-67
2020/12/20 07:26:05;;;;;;;2.78;1.55;;;4.40;99.90;;;;;;5121049;28;20391;-67
2020/12/20 07:28:31;;;;;;;;;;;4.30;99.90;;;;;;5121827;28;20020;-66
2020/12/20 07:30:57;;;;;;;2.90;1.17;;;4.10;99.90;;;;;;5121089;28;20390;-67
2020/12/20 07:33:23;;;;;;;;;;;4.40;99.90;;;;;;5121550;28;20478;-67
2020/12/20 07:35:49;;;;;;;2.10;1.13;;;4.30;99.90;;;;;;5121175;28;19907;-67
2020/12/20 07:38:15;;;;;;;;;;;4.20;99.90;;;;;;5121567;28;20020;-67
2020/12/20 07:40:41;;;;;;;5.70;1.20;;;4.10;99.90;;;;;;5120758;28;19907;-67
2020/12/20 07:43:06;;;;;;;;;;;4.20;99.90;;;;;;5121252;28;20499;-67
2020/12/20 07:45:33;;;;;;;3.67;1.10;;;4.10;99.90;;;;;;5120911;28;19908;-67
2020/12/20 07:48:00;;;;;;;1.25;0.90;;;3.80;99.90;;;;;;5120956;28;20376;-67
2020/12/20 07:50:26;;;;;;;5.30;1.10;;;4.00;99.90;;;;;;5120901;28;20026;-67
2020/12/20 07:52:52;;;;;;;3.22;0.98;;;4.10;99.90;;;;;;5120893;28;20028;-67
2020/12/20 07:55:18;;;;;;;0.95;0.90;;;4.10;99.90;;;;;;5120429;28;20437;-67
2020/12/20 07:57:48;;;;;;;3.17;1.65;;;3.90;99.90;;;;;;5120681;28;20125;-67
2020/12/20 08:00:17;;;;;;;4.65;1.20;;;4.00;99.90;;;;;;5120701;28;20049;-67
2020/12/20 08:02:43;;;;;;;2.35;1.00;;;4.10;99.90;;;;;;5120730;28;20026;-66
2020/12/20 08:05:10;;;;;;;;;;;3.90;99.90;;;;;;5121040;28;20403;-67
2020/12/20 08:07:36;;;;;;;;;;;4.00;99.90;;;;;;5120983;28;20452;-67
2020/12/20 08:10:06;;;;;;;1.27;1.00;;;4.10;99.90;;;;;;5112940;28;19916;-67
2020/12/20 08:12:35;;;;;;;1.27;0.80;;;3.90;99.90;;;;;;5117726;27;20016;-67
2020/12/20 08:15:08;;;;;;;3.25;1.17;;;3.80;99.90;;;;;;5120417;28;20073;-67
2020/12/20 08:17:36;;;;;;;2.97;1.10;;;4.20;99.90;;;;;;5106890;27;20028;-67
2020/12/20 08:20:06;;;;;;;3.15;1.17;;;4.10;99.90;;;;;;5099612;28;20097;-67
2020/12/20 08:22:34;;;;;;;2.45;1.00;;;4.30;99.90;;;;;;5128940;27;20019;-67
2020/12/20 08:25:10;;;;;;;1.92;0.90;;;4.20;99.90;;;;;;5120068;28;20015;-67
2020/12/20 08:27:45;;;;;;;0.80;0.80;;;4.20;99.90;;;;;;5118658;28;20031;-67
2020/12/20 08:30:11;;;;;;;10.75;2.03;;;4.20;99.90;;;;;;5119476;28;20028;-67
2020/12/20 08:32:41;;;;;;;2.67;1.38;;;4.30;99.90;;;;;;5118240;28;20019;-69
2020/12/20 08:35:22;;;;;;;4.28;1.10;;;4.30;99.90;;;;;;5120098;27;20121;-66
2020/12/20 08:38:06;;;;;;;1.23;1.02;;;4.30;99.90;;;;;;5119855;27;20092;-67
2020/12/20 08:40:34;;;;;;;3.15;1.45;;;4.30;99.90;;;;;;5112161;27;20027;-67
2020/12/20 08:43:02;;;;;;;6.82;1.40;;;4.50;99.90;;;;;;5108369;28;20065;-67
2020/12/20 08:45:28;;;;;;;5.90;1.33;;;4.60;99.90;;;;;;5114510;27;20130;-67
2020/12/20 08:48:04;;;;;;;8.45;1.80;;;4.80;99.90;;;;;;5108144;28;20028;-67
2020/12/20 08:50:31;;;;;;;6.57;1.00;;;4.80;99.90;;;;;;5098326;28;20479;-67
2020/12/20 08:53:05;;;;;;;4.60;1.40;;;5.20;99.90;;;;;;5119977;27;20027;-67
2020/12/20 08:55:31;;;;;;;5.60;1.33;;;5.60;99.90;;;;;;5106901;27;20055;-67
2020/12/20 08:58:08;;;;;;;3.22;1.40;;;5.80;99.90;;;;;;5113484;27;20039;-67
2020/12/20 09:00:35;;;;;;;3.50;1.10;;;6.30;99.90;;;;;;5107186;28;20023;-67
2020/12/20 09:03:06;;;;;;;2.42;1.05;;;6.50;99.90;;;;;;5119226;28;20098;-67
2020/12/20 09:05:35;;;;;;;3.00;1.17;;;6.90;99.90;;;;;;5119467;28;20020;-67
2020/12/20 09:08:02;;;;;;;2.55;0.70;;;7.50;99.90;;;;;;5118563;27;20094;-67
2020/12/20 09:10:33;;;;;;;11.55;2.95;;;8.00;99.90;;;;;;5098844;28;20063;-67
2020/12/20 09:13:05;;;;;;;2.90;1.25;;;9.00;99.90;;;;;;5098891;28;20434;-68
2020/12/20 09:15:32;;;;;;;1.45;1.15;;;10.00;99.90;;;;;;5098751;28;20498;-68
2020/12/20 09:18:02;;;;;;;3.53;1.10;;;10.60;99.90;;;;;;5098576;28;20024;-67
2020/12/20 09:20:29;;;;;;;10.30;1.50;;;10.80;99.90;;;;;;5114763;28;20043;-67
2020/12/20 09:23:00;;;;;;;5.97;0.95;;;11.10;99.90;;;;;;5132169;27;20387;-68
2020/12/20 09:25:41;;;;;;;11.02;1.83;;;11.30;99.90;;;;;;5117601;28;20027;-68
2020/12/20 09:28:10;;;;;;;2.65;1.00;;;11.50;99.90;;;;;;5107022;28;20024;-68
2020/12/20 09:30:40;;;;;;;6.47;1.15;;;12.20;99.90;;;;;;5118478;28;20030;-67
2020/12/20 09:33:38;;;;;;;5.75;1.42;;;12.80;99.90;;;;;;5117560;28;20509;-67
2020/12/20 09:36:14;;;;;;;;;;;12.40;99.90;;;;;;5119205;28;20026;-68
2020/12/20 09:38:48;;;;;;;10.35;1.70;;;12.20;99.90;;;;;;5118593;28;20418;-68
2020/12/20 09:41:21;;;;;;;6.40;1.55;;;11.90;99.90;;;;;;5118833;28;20028;-67
2020/12/20 09:43:49;;;;;;;4.72;1.83;;;12.00;99.90;;;;;;5117100;28;20047;-68
2020/12/20 09:46:20;;;;;;;9.98;1.80;;;11.90;99.90;;;;;;5118427;28;20055;-67
2020/12/20 09:48:50;;;;;;;3.47;1.55;;;11.80;99.90;;;;;;5118464;28;20498;-67
2020/12/20 09:51:16;;;;;;;4.10;1.50;;;12.00;99.90;;;;;;5118491;28;20023;-68
2020/12/20 09:53:42;;;;;;;7.65;1.85;;;12.60;99.90;;;;;;5117985;28;20483;-67
2020/12/20 09:56:08;;;;;;;9.20;2.17;;;13.40;99.90;;;;;;5118472;28;20043;-68
2020/12/20 09:58:34;;;;;;;8.30;2.20;;;14.40;99.90;;;;;;5118139;28;20028;-68
2020/12/20 10:01:00;;;;;;;4.25;1.20;;;15.10;99.90;;;;;;5118410;28;20422;-68
2020/12/20 10:03:27;;;;;;;5.78;1.77;;;15.20;99.90;;;;;;5118200;28;20031;-68
2020/12/20 10:05:57;;;;;;;4.88;1.50;;;14.60;99.90;;;;;;5118486;28;20019;-68
2020/12/20 10:08:24;;;;;;;8.35;2.00;;;14.30;99.90;;;;;;5118183;28;20106;-68
2020/12/20 10:10:59;;;;;;;7.30;1.73;;;14.80;99.90;;;;;;5117802;28;20028;-68
2020/12/20 10:13:25;;;;;;;6.30;1.77;;;16.10;99.90;;;;;;5118099;28;20069;-68
2020/12/20 10:15:50;;;;;;;8.38;2.33;;;17.40;99.90;;;;;;5118146;28;20016;-67
2020/12/20 10:18:16;;;;;;;6.32;1.80;;;18.70;99.90;;;;;;5118071;28;20024;-68
2020/12/20 10:20:44;;;;;;;6.55;1.67;;;19.70;99.90;;;;;;5118092;28;20047;-68
2020/12/20 10:23:10;;;;;;;8.90;2.53;;;20.40;99.90;;;;;;5129749;27;20055;-68
2020/12/20 10:25:36;;;;;;;9.40;1.92;;;20.90;99.90;;;;;;5117549;28;20438;-68
2020/12/20 10:28:02;;;;;;;6.22;2.10;;;21.30;99.90;;;;;;5116651;28;20023;-68
2020/12/20 10:30:28;;;;;;;6.70;1.63;;;21.60;99.90;;;;;;5109431;28;20020;-68
2020/12/20 10:32:55;;;;;;;3.45;1.70;;;21.30;99.90;;;;;;5106159;28;20024;-68
2020/12/20 10:35:23;;;;;;;5.63;1.88;;;21.00;99.90;;;;;;5108644;28;20031;-68
2020/12/20 10:37:53;;;;;;;6.85;1.42;;;20.70;99.90;;;;;;5097465;28;20031;-68
2020/12/20 10:40:21;;;;;;;4.93;1.63;;;20.80;99.90;;;;;;5097294;28;20096;-68
2020/12/20 10:42:47;;;;;;;4.75;1.30;;;20.80;99.90;;;;;;5097227;28;20074;-68
2020/12/20 10:45:14;;;;;;;9.15;2.88;;;21.10;99.90;;;;;;5097306;28;20046;-69
2020/12/20 10:47:40;;;;;;;6.22;2.13;;;21.60;99.90;;;;;;5113440;28;20161;-68
2020/12/20 10:50:06;;;;;;;6.07;1.80;;;21.90;99.90;;;;;;5106025;27;20024;-68
2020/12/20 10:52:32;;;;;;;8.98;2.00;;;21.90;99.90;;;;;;5097485;28;20021;-69
2020/12/20 10:55:00;;;;;;;7.30;1.92;;;21.60;99.90;;;;;;5098392;28;20027;-68
2020/12/20 10:57:26;;;;;;;7.03;2.05;;;21.10;99.90;;;;;;5101772;28;20020;-68
2020/12/20 10:59:52;;;;;;;8.45;1.90;;;20.20;99.90;;;;;;5114317;28;20038;-68
2020/12/20 11:02:18;;;;;;;4.85;1.58;;;18.90;99.90;;;;;;5108926;28;20558;-68
2020/12/20 11:04:44;;;;;;;6.00;1.77;;;18.00;99.90;;;;;;5110207;28;20030;-68
2020/12/20 11:07:10;;;;;;;9.82;2.47;;;17.80;99.90;;;;;;5101395;28;20024;-68
2020/12/20 11:09:36;;;;;;;7.40;1.45;;;17.90;99.90;;;;;;5103108;28;20032;-70
2020/12/20 11:12:04;;;;;;;6.88;2.58;;;17.80;99.90;;;;;;5120497;28;20026;-68
2020/12/20 11:14:32;;;;;;;5.28;1.65;;;18.00;99.90;;;;;;5121435;28;20098;-68
2020/12/20 11:16:58;;;;;;;8.02;1.73;;;18.00;99.90;;;;;;5121778;28;20023;-68
2020/12/20 11:19:24;;;;;;;8.55;2.83;;;18.40;99.90;;;;;;5121267;28;20052;-68
2020/12/20 11:21:52;;;;;;;12.05;2.78;;;18.50;99.90;;;;;;5121910;27;20102;-68
2020/12/20 11:24:19;;;;;;;16.60;2.08;;;18.00;99.90;;;;;;5124791;27;20075;-68
2020/12/20 11:26:46;;;;;;;5.35;1.67;;;17.90;99.90;;;;;;5111592;28;20476;-68
2020/12/20 11:29:13;;;;;;;11.68;2.25;;;18.50;99.90;;;;;;5121104;28;20148;-68
2020/12/20 11:31:39;;;;;;;7.18;1.85;;;18.60;99.90;;;;;;5119924;28;20027;-68
2020/12/20 11:34:06;;;;;;;5.93;1.92;;;18.90;99.90;;;;;;5103306;28;20046;-68
2020/12/20 11:36:33;;;;;;;8.90;1.95;;;19.60;99.90;;;;;;5100655;28;20027;-68
2020/12/20 11:38:59;;;;;;;6.40;1.40;;;20.20;99.90;;;;;;5100316;28;20385;-68
2020/12/20 11:41:27;;;;;;;7.93;2.35;;;20.60;99.90;;;;;;5116420;28;20023;-68
2020/12/20 11:43:55;;;;;;;8.95;2.28;;;21.00;99.90;;;;;;5112215;28;20514;-68
2020/12/20 11:46:22;;;;;;;5.50;1.30;;;21.30;99.90;;;;;;5112485;28;20495;-68
2020/12/20 11:48:48;;;;;;;8.52;2.40;;;21.20;99.90;;;;;;5120798;28;20020;-68
2020/12/20 11:51:15;;;;;;;11.27;2.28;;;20.30;99.90;;;;;;5120925;28;20468;-68
2020/12/20 11:53:41;;;;;;;11.98;2.10;;;19.00;99.90;;;;;;5120281;28;20069;-68
2020/12/20 11:56:09;;;;;;;7.40;1.77;;;17.70;99.90;;;;;;5120724;28;20023;-68
2020/12/20 11:58:35;;;;;;;9.43;2.60;;;16.60;99.90;;;;;;5120398;28;20514;-68
2020/12/20 12:01:01;;;;;;;7.43;1.75;;;15.80;99.90;;;;;;5120758;28;20023;-68
2020/12/20 12:03:27;;;;;;;11.68;2.75;;;15.40;99.90;;;;;;5119858;28;20031;-68
2020/12/20 12:05:53;;;;;;;11.07;2.42;;;15.10;99.90;;;;;;5107161;28;20028;-68
2020/12/20 12:08:20;;;;;;;7.45;1.95;;;15.00;99.90;;;;;;5099822;28;20027;-68
2020/12/20 12:10:49;;;;;;;8.32;1.63;;;15.00;99.90;;;;;;5099901;28;20547;-68
2020/12/20 12:13:16;;;;;;;14.75;2.72;;;15.40;99.90;;;;;;5099908;28;20028;-68
2020/12/20 12:15:42;;;;;;;12.57;2.92;;;15.90;99.90;;;;;;5098728;28;20046;-70
2020/12/20 12:18:11;;;;;;;10.07;2.58;;;16.00;99.90;;;;;;5099641;28;20099;-70
2020/12/20 12:20:37;;;;;;;13.15;2.40;;;16.20;99.90;;;;;;5099968;28;20032;-71
2020/12/20 12:23:04;;;;;;;8.02;2.17;;;16.60;99.90;;;;;;5133264;27;20027;-73
2020/12/20 12:25:30;;;;;;;8.40;2.03;;;16.90;99.90;;;;;;5119767;28;20031;-67
2020/12/20 12:27:56;;;;;;;4.75;1.35;;;16.90;99.90;;;;;;5119987;28;20029;-69
2020/12/20 12:30:22;;;;;;;10.13;2.25;;;17.00;99.90;;;;;;5119910;27;20059;-68
2020/12/20 12:32:52;;;;;;;10.45;1.95;;;17.50;99.90;;;;;;5120206;28;20023;-68
2020/12/20 12:35:19;;;;;;;10.55;2.53;;;17.30;99.90;;;;;;5119898;28;20039;-68
2020/12/20 12:37:44;;;;;;;9.05;2.22;;;16.60;99.90;;;;;;5120229;28;20015;-68
2020/12/20 12:40:10;;;;;;;12.38;2.47;;;16.40;99.90;;;;;;5119667;28;20073;-68
2020/12/20 12:42:40;;;;;;;8.55;2.08;;;16.10;99.90;;;;;;5119850;28;20019;-68
2020/12/20 12:45:06;;;;;;;12.40;2.30;;;15.80;99.90;;;;;;5119659;28;20064;-68
2020/12/20 12:47:32;;;;;;;5.25;1.73;;;15.70;99.90;;;;;;5119864;28;20035;-68
2020/12/20 12:49:58;;;;;;;13.85;2.55;;;15.40;99.90;;;;;;5119916;28;20019;-68
2020/12/20 12:52:24;;;;;;;12.30;2.38;;;14.80;99.90;;;;;;5119674;28;20024;-68
2020/12/20 12:54:50;;;;;;;9.45;1.85;;;14.60;99.90;;;;;;5119260;28;20027;-68
2020/12/20 12:57:16;;;;;;;5.63;1.50;;;14.70;99.90;;;;;;5119704;28;20026;-68
2020/12/20 12:59:42;;;;;;;9.13;1.90;;;15.30;99.90;;;;;;5119502;28;20365;-68
2020/12/20 13:02:08;;;;;;;7.00;2.35;;;16.40;99.90;;;;;;5119617;28;20499;-68
2020/12/20 13:04:35;;;;;;;8.57;2.28;;;16.90;99.90;;;;;;5119517;28;20438;-68
2020/12/20 13:07:01;;;;;;;7.90;1.50;;;16.90;99.90;;;;;;5119411;28;20058;-68